sensor_id;sensor_type;location;lat;lon;timestamp;P1;P2;P0
56495;PMS5003;42804;55.762;38.084;2022-10-17T00:00:52;23.50;17.00;11.00
56495;PMS5003;42804;55.762;38.084;2022-10-17T00:03:20;22.00;20.75;14.00
56495;PMS5003;42804;55.762;38.084;2022-10-17T00:05:48;24.00;21.75;15.00
56495;PMS5003;42804;55.762;38.084;2022-10-17T00:08:17;25.75;23.50;14.25
56495;PMS5003;42804;55.762;38.084;2022-10-17T00:10:54;23.50;20.00;12.50
56495;PMS5003;42804;55.762;38.084;2022-10-17T00:13:23;27.00;24.50;17.25
56495;PMS5003;42804;55.762;38.084;2022-10-17T00:15:52;21.75;18.50;11.75
56495;PMS5003;42804;55.762;38.084;2022-10-17T00:18:20;27.25;26.50;16.50
56495;PMS5003;42804;55.762;38.084;2022-10-17T00:20:48;31.50;27.25;16.75
56495;PMS5003;42804;55.762;38.084;2022-10-17T00:23:16;30.80;29.20;17.80
56495;PMS5003;42804;55.762;38.084;2022-10-17T00:25:45;34.00;30.40;21.40
56495;PMS5003;42804;55.762;38.084;2022-10-17T00:28:13;31.80;31.00;17.40
56495;PMS5003;42804;55.762;38.084;2022-10-17T00:30:44;31.80;28.80;18.00
56495;PMS5003;42804;55.762;38.084;2022-10-17T00:33:12;32.50;26.25;16.75
56495;PMS5003;42804;55.762;38.084;2022-10-17T00:35:40;24.75;21.75;14.50
56495;PMS5003;42804;55.762;38.084;2022-10-17T00:38:09;24.25;20.50;13.00
56495;PMS5003;42804;55.762;38.084;2022-10-17T00:40:37;17.25;15.50;8.50
56495;PMS5003;42804;55.762;38.084;2022-10-17T00:43:08;25.50;20.75;11.75
56495;PMS5003;42804;55.762;38.084;2022-10-17T00:45:40;17.75;15.75;10.25
56495;PMS5003;42804;55.762;38.084;2022-10-17T00:48:12;18.00;18.00;12.25
56495;PMS5003;42804;55.762;38.084;2022-10-17T00:50:45;18.50;17.25;12.50
56495;PMS5003;42804;55.762;38.084;2022-10-17T00:53:15;15.00;13.50;10.00
56495;PMS5003;42804;55.762;38.084;2022-10-17T00:55:47;19.50;16.50;10.75
56495;PMS5003;42804;55.762;38.084;2022-10-17T00:58:15;23.00;19.00;13.75
56495;PMS5003;42804;55.762;38.084;2022-10-17T01:00:44;20.50;18.00;11.75
56495;PMS5003;42804;55.762;38.084;2022-10-17T01:03:15;20.00;18.25;12.00
56495;PMS5003;42804;55.762;38.084;2022-10-17T01:05:43;30.80;27.60;17.00
56495;PMS5003;42804;55.762;38.084;2022-10-17T01:08:13;36.80;33.40;17.80
56495;PMS5003;42804;55.762;38.084;2022-10-17T01:10:44;30.25;24.00;14.75
56495;PMS5003;42804;55.762;38.084;2022-10-17T01:13:15;26.75;22.25;13.50
56495;PMS5003;42804;55.762;38.084;2022-10-17T01:15:49;21.25;17.00;12.00
56495;PMS5003;42804;55.762;38.084;2022-10-17T01:18:24;22.50;18.00;10.00
56495;PMS5003;42804;55.762;38.084;2022-10-17T01:21:01;21.25;18.00;11.50
56495;PMS5003;42804;55.762;38.084;2022-10-17T01:23:51;16.50;14.00;8.50
56495;PMS5003;42804;55.762;38.084;2022-10-17T01:26:24;16.75;15.50;9.25
56495;PMS5003;42804;55.762;38.084;2022-10-17T01:29:07;17.25;14.50;11.00
56495;PMS5003;42804;55.762;38.084;2022-10-17T01:31:45;14.50;11.75;8.00
56495;PMS5003;42804;55.762;38.084;2022-10-17T01:34:15;13.00;12.00;7.50
56495;PMS5003;42804;55.762;38.084;2022-10-17T01:36:47;14.75;14.00;10.00
56495;PMS5003;42804;55.762;38.084;2022-10-17T01:39:20;14.50;13.50;10.50
56495;PMS5003;42804;55.762;38.084;2022-10-17T01:41:55;13.75;11.75;8.75
56495;PMS5003;42804;55.762;38.084;2022-10-17T01:44:26;15.00;14.25;9.75
56495;PMS5003;42804;55.762;38.084;2022-10-17T01:46:58;19.00;17.00;9.25
56495;PMS5003;42804;55.762;38.084;2022-10-17T01:49:28;31.00;28.00;18.25
56495;PMS5003;42804;55.762;38.084;2022-10-17T01:52:00;39.50;34.50;21.75
56495;PMS5003;42804;55.762;38.084;2022-10-17T01:54:31;30.50;27.00;17.00
56495;PMS5003;42804;55.762;38.084;2022-10-17T01:57:02;30.00;27.00;19.75
56495;PMS5003;42804;55.762;38.084;2022-10-17T01:59:33;31.50;26.00;15.00
56495;PMS5003;42804;55.762;38.084;2022-10-17T02:02:05;26.00;23.00;11.50
56495;PMS5003;42804;55.762;38.084;2022-10-17T02:04:34;24.50;23.50;15.50
56495;PMS5003;42804;55.762;38.084;2022-10-17T02:07:06;22.75;19.50;12.25
56495;PMS5003;42804;55.762;38.084;2022-10-17T02:09:36;23.50;21.25;14.25
56495;PMS5003;42804;55.762;38.084;2022-10-17T02:12:24;24.20;23.40;15.00
56495;PMS5003;42804;55.762;38.084;2022-10-17T02:14:59;22.00;21.75;15.50
56495;PMS5003;42804;55.762;38.084;2022-10-17T02:17:36;21.50;18.75;11.00
56495;PMS5003;42804;55.762;38.084;2022-10-17T02:20:11;20.50;17.50;11.00
56495;PMS5003;42804;55.762;38.084;2022-10-17T02:22:44;15.75;14.00;10.00
56495;PMS5003;42804;55.762;38.084;2022-10-17T02:25:15;15.25;13.25;10.50
56495;PMS5003;42804;55.762;38.084;2022-10-17T02:27:55;15.00;14.00;8.00
56495;PMS5003;42804;55.762;38.084;2022-10-17T02:30:28;16.00;12.00;8.75
56495;PMS5003;42804;55.762;38.084;2022-10-17T02:33:04;10.75;10.75;8.50
56495;PMS5003;42804;55.762;38.084;2022-10-17T02:35:35;20.25;17.75;12.25
56495;PMS5003;42804;55.762;38.084;2022-10-17T02:38:05;26.25;21.00;14.75
56495;PMS5003;42804;55.762;38.084;2022-10-17T02:40:35;15.00;11.75;6.00
56495;PMS5003;42804;55.762;38.084;2022-10-17T02:43:04;18.75;15.25;9.50
56495;PMS5003;42804;55.762;38.084;2022-10-17T02:45:33;21.00;18.25;11.00
56495;PMS5003;42804;55.762;38.084;2022-10-17T02:48:07;24.75;20.50;11.50
56495;PMS5003;42804;55.762;38.084;2022-10-17T02:50:38;28.50;25.50;15.75
56495;PMS5003;42804;55.762;38.084;2022-10-17T02:53:11;27.40;24.20;14.60
56495;PMS5003;42804;55.762;38.084;2022-10-17T02:55:42;25.00;22.50;12.00
56495;PMS5003;42804;55.762;38.084;2022-10-17T02:58:15;18.25;15.50;11.25
56495;PMS5003;42804;55.762;38.084;2022-10-17T03:00:45;14.50;13.50;8.00
56495;PMS5003;42804;55.762;38.084;2022-10-17T03:03:19;15.75;15.00;10.50
56495;PMS5003;42804;55.762;38.084;2022-10-17T03:05:49;17.50;15.00;8.50
56495;PMS5003;42804;55.762;38.084;2022-10-17T03:08:20;16.25;15.50;9.25
56495;PMS5003;42804;55.762;38.084;2022-10-17T03:10:49;19.00;16.00;9.75
56495;PMS5003;42804;55.762;38.084;2022-10-17T03:13:19;17.25;14.50;9.00
56495;PMS5003;42804;55.762;38.084;2022-10-17T03:15:48;7.25;7.00;5.00
56495;PMS5003;42804;55.762;38.084;2022-10-17T03:18:16;14.75;13.50;8.00
56495;PMS5003;42804;55.762;38.084;2022-10-17T03:20:48;17.50;15.25;8.00
56495;PMS5003;42804;55.762;38.084;2022-10-17T03:23:16;16.75;14.00;8.00
56495;PMS5003;42804;55.762;38.084;2022-10-17T03:25:44;24.75;18.00;11.50
56495;PMS5003;42804;55.762;38.084;2022-10-17T03:28:14;32.00;31.80;21.00
56495;PMS5003;42804;55.762;38.084;2022-10-17T03:30:42;36.20;31.60;17.40
56495;PMS5003;42804;55.762;38.084;2022-10-17T03:33:11;43.80;39.80;25.40
56495;PMS5003;42804;55.762;38.084;2022-10-17T03:35:39;37.60;33.40;21.20
56495;PMS5003;42804;55.762;38.084;2022-10-17T03:38:10;27.80;25.00;16.40
56495;PMS5003;42804;55.762;38.084;2022-10-17T03:40:38;30.75;27.25;17.75
56495;PMS5003;42804;55.762;38.084;2022-10-17T03:43:06;18.00;16.00;10.00
56495;PMS5003;42804;55.762;38.084;2022-10-17T03:45:38;17.75;16.00;11.00
56495;PMS5003;42804;55.762;38.084;2022-10-17T03:48:06;17.75;16.50;11.00
56495;PMS5003;42804;55.762;38.084;2022-10-17T03:50:34;7.50;5.00;0.00
56495;PMS5003;42804;55.762;38.084;2022-10-17T03:53:03;14.50;14.00;8.00
56495;PMS5003;42804;55.762;38.084;2022-10-17T03:55:32;16.75;14.25;8.00
56495;PMS5003;42804;55.762;38.084;2022-10-17T03:58:01;17.75;16.75;10.50
56495;PMS5003;42804;55.762;38.084;2022-10-17T04:00:29;18.50;15.25;9.25
56495;PMS5003;42804;55.762;38.084;2022-10-17T04:02:57;21.50;18.25;11.00
56495;PMS5003;42804;55.762;38.084;2022-10-17T04:05:26;19.00;16.25;11.00
56495;PMS5003;42804;55.762;38.084;2022-10-17T04:07:55;20.25;19.50;12.00
56495;PMS5003;42804;55.762;38.084;2022-10-17T04:10:51;25.25;19.25;13.25
56495;PMS5003;42804;55.762;38.084;2022-10-17T04:13:19;30.00;21.25;14.00
56495;PMS5003;42804;55.762;38.084;2022-10-17T04:15:52;23.00;17.60;7.40
56495;PMS5003;42804;55.762;38.084;2022-10-17T04:18:21;23.75;22.50;15.00
56495;PMS5003;42804;55.762;38.084;2022-10-17T04:20:49;22.75;21.75;11.75
56495;PMS5003;42804;55.762;38.084;2022-10-17T04:23:18;15.75;13.25;9.00
56495;PMS5003;42804;55.762;38.084;2022-10-17T04:25:52;15.75;13.00;7.00
56495;PMS5003;42804;55.762;38.084;2022-10-17T04:28:23;12.00;12.00;8.00
56495;PMS5003;42804;55.762;38.084;2022-10-17T04:30:55;16.25;13.00;7.50
56495;PMS5003;42804;55.762;38.084;2022-10-17T04:33:24;16.25;15.00;6.75
56495;PMS5003;42804;55.762;38.084;2022-10-17T04:35:56;19.50;16.25;12.00
56495;PMS5003;42804;55.762;38.084;2022-10-17T04:38:25;27.25;21.00;14.50
56495;PMS5003;42804;55.762;38.084;2022-10-17T04:40:57;21.50;20.25;13.25
56495;PMS5003;42804;55.762;38.084;2022-10-17T04:43:29;14.50;12.00;8.00
56495;PMS5003;42804;55.762;38.084;2022-10-17T04:45:57;23.25;20.75;13.00
56495;PMS5003;42804;55.762;38.084;2022-10-17T04:48:26;18.00;14.25;9.75
56495;PMS5003;42804;55.762;38.084;2022-10-17T04:50:54;15.75;15.50;8.75
56495;PMS5003;42804;55.762;38.084;2022-10-17T04:53:36;14.25;13.50;8.75
56495;PMS5003;42804;55.762;38.084;2022-10-17T04:56:09;19.50;16.00;10.00
56495;PMS5003;42804;55.762;38.084;2022-10-17T04:58:38;58.80;41.20;24.40
56495;PMS5003;42804;55.762;38.084;2022-10-17T05:01:07;17.50;11.50;8.00
56495;PMS5003;42804;55.762;38.084;2022-10-17T05:03:38;23.25;19.50;13.50
56495;PMS5003;42804;55.762;38.084;2022-10-17T05:06:07;21.00;18.50;10.50
56495;PMS5003;42804;55.762;38.084;2022-10-17T05:08:37;19.00;16.50;11.25
56495;PMS5003;42804;55.762;38.084;2022-10-17T05:11:07;15.50;15.00;9.00
56495;PMS5003;42804;55.762;38.084;2022-10-17T05:13:43;19.50;16.25;11.50
56495;PMS5003;42804;55.762;38.084;2022-10-17T05:16:12;20.50;18.50;11.00
56495;PMS5003;42804;55.762;38.084;2022-10-17T05:18:41;19.50;16.50;12.00
56495;PMS5003;42804;55.762;38.084;2022-10-17T05:21:09;16.25;14.25;9.50
56495;PMS5003;42804;55.762;38.084;2022-10-17T05:23:38;15.50;14.00;8.00
56495;PMS5003;42804;55.762;38.084;2022-10-17T05:26:06;16.00;13.50;8.25
56495;PMS5003;42804;55.762;38.084;2022-10-17T05:28:35;15.00;13.00;8.50
56495;PMS5003;42804;55.762;38.084;2022-10-17T05:31:06;16.75;16.00;9.75
56495;PMS5003;42804;55.762;38.084;2022-10-17T05:33:34;16.50;15.50;10.00
56495;PMS5003;42804;55.762;38.084;2022-10-17T05:36:03;15.50;12.00;5.75
56495;PMS5003;42804;55.762;38.084;2022-10-17T05:38:32;14.00;13.00;9.25
56495;PMS5003;42804;55.762;38.084;2022-10-17T05:41:02;17.50;16.25;11.00
56495;PMS5003;42804;55.762;38.084;2022-10-17T05:43:33;22.75;16.25;10.50
56495;PMS5003;42804;55.762;38.084;2022-10-17T05:46:02;9.50;9.00;5.00
56495;PMS5003;42804;55.762;38.084;2022-10-17T05:48:39;22.00;14.75;8.50
56495;PMS5003;42804;55.762;38.084;2022-10-17T05:51:08;16.50;14.25;10.00
56495;PMS5003;42804;55.762;38.084;2022-10-17T05:53:39;17.75;13.75;8.50
56495;PMS5003;42804;55.762;38.084;2022-10-17T05:56:16;16.00;16.00;9.50
56495;PMS5003;42804;55.762;38.084;2022-10-17T05:58:47;16.25;14.00;9.75
56495;PMS5003;42804;55.762;38.084;2022-10-17T06:01:41;19.25;15.75;9.75
56495;PMS5003;42804;55.762;38.084;2022-10-17T06:04:11;8.00;7.00;5.00
56495;PMS5003;42804;55.762;38.084;2022-10-17T06:06:40;16.75;15.00;10.00
56495;PMS5003;42804;55.762;38.084;2022-10-17T06:09:12;18.00;15.00;9.00
56495;PMS5003;42804;55.762;38.084;2022-10-17T06:11:47;17.00;14.75;9.00
56495;PMS5003;42804;55.762;38.084;2022-10-17T06:14:16;17.00;15.75;10.50
56495;PMS5003;42804;55.762;38.084;2022-10-17T06:16:47;14.75;14.50;9.00
56495;PMS5003;42804;55.762;38.084;2022-10-17T06:19:17;11.25;10.50;9.00
56495;PMS5003;42804;55.762;38.084;2022-10-17T06:21:46;16.75;16.50;11.50
56495;PMS5003;42804;55.762;38.084;2022-10-17T06:24:19;15.00;14.75;9.00
56495;PMS5003;42804;55.762;38.084;2022-10-17T06:26:50;18.00;15.75;10.75
56495;PMS5003;42804;55.762;38.084;2022-10-17T06:29:20;17.25;15.50;10.50
56495;PMS5003;42804;55.762;38.084;2022-10-17T06:31:51;15.75;14.75;10.00
56495;PMS5003;42804;55.762;38.084;2022-10-17T06:34:21;16.00;14.25;9.00
56495;PMS5003;42804;55.762;38.084;2022-10-17T06:36:52;13.75;11.00;7.00
56495;PMS5003;42804;55.762;38.084;2022-10-17T06:39:25;16.50;14.00;9.00
56495;PMS5003;42804;55.762;38.084;2022-10-17T06:42:20;17.50;15.00;10.50
56495;PMS5003;42804;55.762;38.084;2022-10-17T06:45:02;16.00;15.50;10.00
56495;PMS5003;42804;55.762;38.084;2022-10-17T06:47:37;18.75;16.00;11.50
56495;PMS5003;42804;55.762;38.084;2022-10-17T06:50:27;16.00;14.00;9.50
56495;PMS5003;42804;55.762;38.084;2022-10-17T06:53:11;15.75;14.75;9.00
56495;PMS5003;42804;55.762;38.084;2022-10-17T06:56:08;9.50;9.25;5.75
56495;PMS5003;42804;55.762;38.084;2022-10-17T06:58:57;16.25;13.25;9.75
56495;PMS5003;42804;55.762;38.084;2022-10-17T07:01:32;12.75;12.00;7.00
56495;PMS5003;42804;55.762;38.084;2022-10-17T07:04:03;12.25;10.75;7.00
56495;PMS5003;42804;55.762;38.084;2022-10-17T07:06:34;17.00;16.00;10.75
56495;PMS5003;42804;55.762;38.084;2022-10-17T07:09:16;17.00;15.00;10.75
56495;PMS5003;42804;55.762;38.084;2022-10-17T07:11:44;12.50;10.75;10.00
56495;PMS5003;42804;55.762;38.084;2022-10-17T07:14:16;19.25;17.00;11.50
56495;PMS5003;42804;55.762;38.084;2022-10-17T07:16:45;14.75;13.25;9.50
56495;PMS5003;42804;55.762;38.084;2022-10-17T07:19:25;17.25;14.00;9.50
56495;PMS5003;42804;55.762;38.084;2022-10-17T07:21:55;15.00;13.00;9.75
56495;PMS5003;42804;55.762;38.084;2022-10-17T07:24:24;14.50;12.50;9.00
56495;PMS5003;42804;55.762;38.084;2022-10-17T07:26:58;18.75;16.50;10.75
56495;PMS5003;42804;55.762;38.084;2022-10-17T07:29:27;18.25;16.25;10.00
56495;PMS5003;42804;55.762;38.084;2022-10-17T07:32:05;23.50;19.50;13.50
56495;PMS5003;42804;55.762;38.084;2022-10-17T07:34:34;16.00;15.25;10.50
56495;PMS5003;42804;55.762;38.084;2022-10-17T07:37:06;6.50;4.00;0.00
56495;PMS5003;42804;55.762;38.084;2022-10-17T07:39:37;13.50;11.50;6.50
56495;PMS5003;42804;55.762;38.084;2022-10-17T07:42:06;17.75;15.75;11.00
56495;PMS5003;42804;55.762;38.084;2022-10-17T07:44:35;13.75;11.25;8.00
56495;PMS5003;42804;55.762;38.084;2022-10-17T07:47:04;7.75;6.75;6.25
56495;PMS5003;42804;55.762;38.084;2022-10-17T07:49:35;15.75;13.00;8.25
56495;PMS5003;42804;55.762;38.084;2022-10-17T07:52:09;18.25;15.75;8.50
56495;PMS5003;42804;55.762;38.084;2022-10-17T07:54:38;15.50;14.75;9.25
56495;PMS5003;42804;55.762;38.084;2022-10-17T07:57:07;15.00;12.25;9.00
56495;PMS5003;42804;55.762;38.084;2022-10-17T07:59:36;11.25;11.25;7.75
56495;PMS5003;42804;55.762;38.084;2022-10-17T08:05:02;16.50;13.75;10.00
56495;PMS5003;42804;55.762;38.084;2022-10-17T08:07:50;15.50;13.25;9.00
56495;PMS5003;42804;55.762;38.084;2022-10-17T08:10:19;13.75;13.00;9.50
56495;PMS5003;42804;55.762;38.084;2022-10-17T08:12:53;16.50;15.00;10.50
56495;PMS5003;42804;55.762;38.084;2022-10-17T08:15:22;19.25;16.50;10.75
56495;PMS5003;42804;55.762;38.084;2022-10-17T08:17:56;20.25;18.25;14.00
56495;PMS5003;42804;55.762;38.084;2022-10-17T08:20:26;16.50;14.50;9.50
56495;PMS5003;42804;55.762;38.084;2022-10-17T08:22:56;18.25;14.50;9.50
56495;PMS5003;42804;55.762;38.084;2022-10-17T08:25:24;20.75;17.50;12.50
56495;PMS5003;42804;55.762;38.084;2022-10-17T08:27:53;18.50;16.00;11.00
56495;PMS5003;42804;55.762;38.084;2022-10-17T08:30:21;14.50;14.00;9.50
56495;PMS5003;42804;55.762;38.084;2022-10-17T08:32:50;19.00;16.00;11.00
56495;PMS5003;42804;55.762;38.084;2022-10-17T08:35:18;18.00;16.00;12.00
56495;PMS5003;42804;55.762;38.084;2022-10-17T08:37:50;18.00;16.50;12.00
56495;PMS5003;42804;55.762;38.084;2022-10-17T08:40:21;19.25;18.75;13.00
56495;PMS5003;42804;55.762;38.084;2022-10-17T08:43:01;19.50;18.00;10.50
56495;PMS5003;42804;55.762;38.084;2022-10-17T08:45:44;17.25;15.75;10.00
56495;PMS5003;42804;55.762;38.084;2022-10-17T08:48:17;22.75;19.75;14.00
56495;PMS5003;42804;55.762;38.084;2022-10-17T08:50:50;17.50;15.00;8.00
56495;PMS5003;42804;55.762;38.084;2022-10-17T08:53:20;19.25;18.25;11.50
56495;PMS5003;42804;55.762;38.084;2022-10-17T08:55:51;25.50;21.50;14.00
56495;PMS5003;42804;55.762;38.084;2022-10-17T08:58:22;21.75;18.00;10.00
56495;PMS5003;42804;55.762;38.084;2022-10-17T09:00:53;22.25;20.50;11.50
56495;PMS5003;42804;55.762;38.084;2022-10-17T09:03:27;27.00;25.25;16.50
56495;PMS5003;42804;55.762;38.084;2022-10-17T09:06:03;26.50;24.25;16.50
56495;PMS5003;42804;55.762;38.084;2022-10-17T09:08:38;30.75;28.00;20.00
56495;PMS5003;42804;55.762;38.084;2022-10-17T09:11:14;28.25;25.00;18.50
56495;PMS5003;42804;55.762;38.084;2022-10-17T09:13:52;26.75;23.75;16.50
56495;PMS5003;42804;55.762;38.084;2022-10-17T09:16:30;35.25;27.50;18.75
56495;PMS5003;42804;55.762;38.084;2022-10-17T09:19:00;34.00;30.00;21.00
56495;PMS5003;42804;55.762;38.084;2022-10-17T09:21:42;34.25;33.25;22.00
56495;PMS5003;42804;55.762;38.084;2022-10-17T09:24:17;33.00;26.25;18.00
56495;PMS5003;42804;55.762;38.084;2022-10-17T09:26:48;24.25;23.25;15.25
56495;PMS5003;42804;55.762;38.084;2022-10-17T09:29:23;27.50;22.25;13.50
56495;PMS5003;42804;55.762;38.084;2022-10-17T09:32:01;23.00;21.50;14.75
56495;PMS5003;42804;55.762;38.084;2022-10-17T09:34:45;25.00;22.25;13.00
56495;PMS5003;42804;55.762;38.084;2022-10-17T09:37:15;19.00;15.00;7.00
56495;PMS5003;42804;55.762;38.084;2022-10-17T09:39:43;20.75;19.50;13.00
56495;PMS5003;42804;55.762;38.084;2022-10-17T09:42:14;25.75;24.75;14.50
56495;PMS5003;42804;55.762;38.084;2022-10-17T09:44:46;18.00;18.00;13.00
56495;PMS5003;42804;55.762;38.084;2022-10-17T09:47:24;21.50;19.50;13.00
56495;PMS5003;42804;55.762;38.084;2022-10-17T09:49:55;22.25;18.00;10.00
56495;PMS5003;42804;55.762;38.084;2022-10-17T09:52:25;33.75;28.75;18.00
56495;PMS5003;42804;55.762;38.084;2022-10-17T09:54:58;20.50;18.25;12.50
56495;PMS5003;42804;55.762;38.084;2022-10-17T09:57:46;15.00;13.25;9.75
56495;PMS5003;42804;55.762;38.084;2022-10-17T10:00:20;20.25;16.25;9.00
56495;PMS5003;42804;55.762;38.084;2022-10-17T10:03:06;18.25;16.75;11.50
56495;PMS5003;42804;55.762;38.084;2022-10-17T10:05:35;19.50;18.00;12.00
56495;PMS5003;42804;55.762;38.084;2022-10-17T10:08:11;23.25;19.50;12.00
56495;PMS5003;42804;55.762;38.084;2022-10-17T10:10:41;21.75;19.50;12.75
56495;PMS5003;42804;55.762;38.084;2022-10-17T10:13:17;20.75;19.00;12.00
56495;PMS5003;42804;55.762;38.084;2022-10-17T10:15:52;24.50;24.00;16.50
56495;PMS5003;42804;55.762;38.084;2022-10-17T10:18:29;22.25;21.00;15.75
56495;PMS5003;42804;55.762;38.084;2022-10-17T10:21:05;24.50;22.50;12.50
56495;PMS5003;42804;55.762;38.084;2022-10-17T10:23:34;25.25;23.00;15.50
56495;PMS5003;42804;55.762;38.084;2022-10-17T10:26:22;24.25;21.50;17.00
56495;PMS5003;42804;55.762;38.084;2022-10-17T10:28:54;21.75;17.25;12.00
56495;PMS5003;42804;55.762;38.084;2022-10-17T10:31:29;14.75;8.50;5.00
56495;PMS5003;42804;55.762;38.084;2022-10-17T10:34:02;25.00;23.50;15.75
56495;PMS5003;42804;55.762;38.084;2022-10-17T10:36:45;29.50;23.00;14.50
56495;PMS5003;42804;55.762;38.084;2022-10-17T10:39:31;25.50;23.00;16.00
56495;PMS5003;42804;55.762;38.084;2022-10-17T10:42:01;50.50;36.50;22.75
56495;PMS5003;42804;55.762;38.084;2022-10-17T10:44:34;26.75;25.00;13.75
56495;PMS5003;42804;55.762;38.084;2022-10-17T10:47:14;26.75;23.25;15.50
56495;PMS5003;42804;55.762;38.084;2022-10-17T10:49:43;22.50;21.50;16.00
56495;PMS5003;42804;55.762;38.084;2022-10-17T10:52:19;19.00;17.50;11.25
56495;PMS5003;42804;55.762;38.084;2022-10-17T10:54:56;29.50;25.75;17.50
56495;PMS5003;42804;55.762;38.084;2022-10-17T10:57:27;25.75;21.00;14.00
56495;PMS5003;42804;55.762;38.084;2022-10-17T11:00:02;26.75;25.50;15.50
56495;PMS5003;42804;55.762;38.084;2022-10-17T11:02:37;28.00;25.50;15.00
56495;PMS5003;42804;55.762;38.084;2022-10-17T11:05:09;32.25;27.25;18.00
56495;PMS5003;42804;55.762;38.084;2022-10-17T11:07:41;26.75;22.50;13.25
56495;PMS5003;42804;55.762;38.084;2022-10-17T11:10:15;23.00;18.00;12.75
56495;PMS5003;42804;55.762;38.084;2022-10-17T11:12:47;24.75;22.25;14.00
56495;PMS5003;42804;55.762;38.084;2022-10-17T11:15:22;19.50;17.50;10.00
56495;PMS5003;42804;55.762;38.084;2022-10-17T11:17:54;30.25;25.50;17.75
56495;PMS5003;42804;55.762;38.084;2022-10-17T11:20:27;21.50;17.00;9.25
56495;PMS5003;42804;55.762;38.084;2022-10-17T11:23:00;30.25;28.00;18.25
56495;PMS5003;42804;55.762;38.084;2022-10-17T11:25:34;31.50;25.50;18.00
56495;PMS5003;42804;55.762;38.084;2022-10-17T11:28:07;50.25;41.00;26.00
56495;PMS5003;42804;55.762;38.084;2022-10-17T11:31:05;24.25;22.00;15.50
56495;PMS5003;42804;55.762;38.084;2022-10-17T11:33:38;25.75;22.50;13.75
56495;PMS5003;42804;55.762;38.084;2022-10-17T11:36:10;29.75;25.75;17.25
56495;PMS5003;42804;55.762;38.084;2022-10-17T11:38:42;23.75;22.00;14.50
56495;PMS5003;42804;55.762;38.084;2022-10-17T11:41:12;25.75;23.75;16.00
56495;PMS5003;42804;55.762;38.084;2022-10-17T11:43:45;26.50;25.25;17.00
56495;PMS5003;42804;55.762;38.084;2022-10-17T11:46:23;25.50;23.25;14.00
56495;PMS5003;42804;55.762;38.084;2022-10-17T11:49:03;17.75;17.75;14.25
56495;PMS5003;42804;55.762;38.084;2022-10-17T11:51:49;24.00;20.50;13.00
56495;PMS5003;42804;55.762;38.084;2022-10-17T11:54:56;27.25;24.75;17.00
56495;PMS5003;42804;55.762;38.084;2022-10-17T11:57:32;25.00;22.25;13.75
56495;PMS5003;42804;55.762;38.084;2022-10-17T12:06:50;20.50;18.00;10.00
56495;PMS5003;42804;55.762;38.084;2022-10-17T12:09:28;23.50;21.00;15.25
56495;PMS5003;42804;55.762;38.084;2022-10-17T12:12:01;25.75;22.00;14.50
56495;PMS5003;42804;55.762;38.084;2022-10-17T12:14:34;32.00;25.50;17.25
56495;PMS5003;42804;55.762;38.084;2022-10-17T12:22:47;27.00;24.00;17.00
56495;PMS5003;42804;55.762;38.084;2022-10-17T12:25:16;28.75;25.00;18.25
56495;PMS5003;42804;55.762;38.084;2022-10-17T12:27:46;20.75;19.00;14.25
56495;PMS5003;42804;55.762;38.084;2022-10-17T12:30:21;34.00;28.75;18.50
56495;PMS5003;42804;55.762;38.084;2022-10-17T12:32:54;31.50;22.50;15.75
56495;PMS5003;42804;55.762;38.084;2022-10-17T12:35:34;31.00;28.25;19.00
56495;PMS5003;42804;55.762;38.084;2022-10-17T12:41:06;22.50;21.50;13.00
56495;PMS5003;42804;55.762;38.084;2022-10-17T12:43:42;32.50;28.75;18.75
56495;PMS5003;42804;55.762;38.084;2022-10-17T12:46:11;27.50;24.75;17.25
56495;PMS5003;42804;55.762;38.084;2022-10-17T12:49:01;32.50;31.00;17.50
56495;PMS5003;42804;55.762;38.084;2022-10-17T12:55:11;30.25;27.50;19.75
56495;PMS5003;42804;55.762;38.084;2022-10-17T12:57:51;32.25;27.00;18.25
56495;PMS5003;42804;55.762;38.084;2022-10-17T13:00:29;29.50;26.00;18.50
56495;PMS5003;42804;55.762;38.084;2022-10-17T13:03:03;22.50;22.25;12.75
56495;PMS5003;42804;55.762;38.084;2022-10-17T13:05:34;35.75;27.75;17.25
56495;PMS5003;42804;55.762;38.084;2022-10-17T13:10:58;34.25;31.25;22.00
56495;PMS5003;42804;55.762;38.084;2022-10-17T13:13:30;26.00;19.00;11.00
56495;PMS5003;42804;55.762;38.084;2022-10-17T13:16:03;33.25;28.00;19.00
56495;PMS5003;42804;55.762;38.084;2022-10-17T13:18:37;20.75;19.00;13.75
56495;PMS5003;42804;55.762;38.084;2022-10-17T13:21:12;21.25;18.50;13.25
56495;PMS5003;42804;55.762;38.084;2022-10-17T13:23:43;19.75;19.25;13.75
56495;PMS5003;42804;55.762;38.084;2022-10-17T13:26:13;41.50;31.50;21.50
56495;PMS5003;42804;55.762;38.084;2022-10-17T13:28:58;24.00;21.75;13.00
56495;PMS5003;42804;55.762;38.084;2022-10-17T13:35:02;22.50;21.25;15.00
56495;PMS5003;42804;55.762;38.084;2022-10-17T13:37:45;30.00;26.25;18.75
56495;PMS5003;42804;55.762;38.084;2022-10-17T13:43:27;19.25;14.50;11.50
56495;PMS5003;42804;55.762;38.084;2022-10-17T13:46:23;30.00;25.25;18.00
56495;PMS5003;42804;55.762;38.084;2022-10-17T13:49:10;33.50;29.50;21.25
56495;PMS5003;42804;55.762;38.084;2022-10-17T13:51:41;31.50;29.75;20.75
56495;PMS5003;42804;55.762;38.084;2022-10-17T13:54:16;31.50;27.50;21.00
56495;PMS5003;42804;55.762;38.084;2022-10-17T13:56:46;34.25;30.00;20.50
56495;PMS5003;42804;55.762;38.084;2022-10-17T13:59:28;33.75;30.25;21.25
56495;PMS5003;42804;55.762;38.084;2022-10-17T14:02:00;25.75;22.25;14.75
56495;PMS5003;42804;55.762;38.084;2022-10-17T14:04:29;24.75;20.50;15.25
56495;PMS5003;42804;55.762;38.084;2022-10-17T14:07:19;33.00;31.00;19.75
56495;PMS5003;42804;55.762;38.084;2022-10-17T14:09:51;32.25;31.00;21.00
56495;PMS5003;42804;55.762;38.084;2022-10-17T14:12:19;19.25;17.25;16.25
56495;PMS5003;42804;55.762;38.084;2022-10-17T14:14:49;28.75;25.75;15.25
56495;PMS5003;42804;55.762;38.084;2022-10-17T14:17:37;29.50;26.75;18.25
56495;PMS5003;42804;55.762;38.084;2022-10-17T14:24:13;31.25;27.75;19.00
56495;PMS5003;42804;55.762;38.084;2022-10-17T14:26:46;29.75;27.25;17.75
56495;PMS5003;42804;55.762;38.084;2022-10-17T14:32:37;32.50;29.75;20.00
56495;PMS5003;42804;55.762;38.084;2022-10-17T14:47:42;41.00;32.60;20.80
56495;PMS5003;42804;55.762;38.084;2022-10-17T14:50:24;29.25;24.75;16.50
56495;PMS5003;42804;55.762;38.084;2022-10-17T14:53:01;41.80;37.60;22.60
56495;PMS5003;42804;55.762;38.084;2022-10-17T14:55:31;38.40;32.20;21.40
56495;PMS5003;42804;55.762;38.084;2022-10-17T14:58:00;35.25;29.75;16.75
56495;PMS5003;42804;55.762;38.084;2022-10-17T15:00:37;37.00;33.25;19.25